Time;durP1;ratioP1;P1;durP2;ratioP2;P2;SDS_P1;SDS_P2;PMS_P1;PMS_P2;Temp;Humidity;BMP_temperature;BMP_pressure;BME280_temperature;BME280_humidity;BME280_pressure;Samples;Min_cycle;Max_cycle;Signal;HPM_P1;HPM_P2
2021/03/01 00:01:12;;;;;;;9.03;6.77;;;4.20;99.90;;;;;;5091570;28;20242;-74
2021/03/01 00:03:38;;;;;;;11.73;7.47;;;4.20;99.90;;;;;;5091842;28;20206;-75
2021/03/01 00:06:04;;;;;;;11.43;7.87;;;4.30;99.90;;;;;;5091358;28;20227;-75
2021/03/01 00:08:30;;;;;;;12.97;7.90;;;4.30;99.90;;;;;;5111004;28;20620;-75
2021/03/01 00:10:56;;;;;;;9.67;7.47;;;4.30;99.90;;;;;;5112076;28;20209;-75
2021/03/01 00:13:23;;;;;;;11.83;7.57;;;4.30;99.90;;;;;;5111906;28;20278;-75
2021/03/01 00:15:50;;;;;;;9.33;7.27;;;4.30;99.90;;;;;;5112014;28;20207;-75
2021/03/01 00:18:17;;;;;;;9.90;7.60;;;4.30;99.90;;;;;;5111525;28;20656;-75
2021/03/01 00:20:43;;;;;;;12.17;8.07;;;4.30;99.90;;;;;;5111860;28;20206;-75
2021/03/01 00:23:10;;;;;;;9.13;6.97;;;4.30;99.90;;;;;;5111678;28;20237;-75
2021/03/01 00:25:38;;;;;;;12.37;8.07;;;4.30;99.90;;;;;;5111455;28;20226;-75
2021/03/01 00:28:05;;;;;;;11.53;8.53;;;4.30;99.90;;;;;;5111695;28;20242;-75
2021/03/01 00:30:31;;;;;;;11.50;8.47;;;4.30;99.90;;;;;;5111576;28;20202;-75
2021/03/01 00:32:57;;;;;;;11.47;8.17;;;4.30;99.90;;;;;;5111678;28;20302;-75
2021/03/01 00:35:24;;;;;;;10.83;7.83;;;4.30;99.90;;;;;;5111777;28;20202;-75
2021/03/01 00:37:51;;;;;;;9.93;8.00;;;4.40;99.90;;;;;;5111383;28;20233;-75
2021/03/01 00:40:17;;;;;;;13.67;8.27;;;4.40;99.90;;;;;;5111480;28;20218;-75
2021/03/01 00:42:43;;;;;;;12.47;8.27;;;4.40;99.90;;;;;;5111320;28;20206;-75
2021/03/01 00:45:11;;;;;;;12.17;8.47;;;4.20;99.90;;;;;;5111290;28;20269;-75
2021/03/01 00:47:37;;;;;;;10.10;7.93;;;4.20;99.90;;;;;;5111233;27;20228;-75
2021/03/01 00:50:04;;;;;;;10.53;8.17;;;4.20;99.90;;;;;;5111170;28;20271;-75
2021/03/01 00:52:31;;;;;;;13.53;7.97;;;4.20;99.90;;;;;;5110749;28;20205;-76
2021/03/01 00:54:57;;;;;;;12.40;8.20;;;4.20;99.90;;;;;;5111341;28;20221;-75
2021/03/01 00:57:23;;;;;;;12.47;8.00;;;4.20;99.90;;;;;;5110854;28;20209;-75
2021/03/01 00:59:49;;;;;;;10.90;8.23;;;4.20;99.90;;;;;;5111161;28;20238;-75
2021/03/01 01:02:15;;;;;;;12.03;8.27;;;4.20;99.90;;;;;;5110881;28;20506;-76
2021/03/01 01:04:42;;;;;;;11.93;7.80;;;4.20;99.90;;;;;;5110425;28;20266;-76
2021/03/01 01:07:08;;;;;;;13.73;8.47;;;4.20;99.90;;;;;;5110923;28;20682;-76
2021/03/01 01:09:34;;;;;;;12.67;8.07;;;4.20;99.90;;;;;;5110729;28;20251;-75
2021/03/01 01:12:01;;;;;;;12.43;8.90;;;4.20;99.90;;;;;;5110606;28;20720;-76
2021/03/01 01:14:27;;;;;;;12.50;8.27;;;4.20;99.90;;;;;;5110695;28;20213;-75
2021/03/01 01:16:53;;;;;;;14.03;8.27;;;4.10;99.90;;;;;;5110466;28;20582;-76
2021/03/01 01:19:19;;;;;;;10.90;8.50;;;4.10;99.90;;;;;;5110515;28;20210;-75
2021/03/01 01:21:45;;;;;;;12.67;8.70;;;4.10;99.90;;;;;;5110291;28;20652;-75
2021/03/01 01:24:12;;;;;;;11.30;8.40;;;4.10;99.90;;;;;;5110684;28;20259;-76
2021/03/01 01:26:39;;;;;;;13.13;8.50;;;4.10;99.90;;;;;;5110144;28;20225;-75
2021/03/01 01:29:05;;;;;;;15.57;8.80;;;4.00;99.90;;;;;;5110426;28;20245;-76
2021/03/01 01:31:31;;;;;;;12.23;8.83;;;3.90;99.90;;;;;;5110578;28;20198;-76
2021/03/01 01:33:58;;;;;;;14.80;9.43;;;3.90;99.90;;;;;;5110664;28;20202;-76
2021/03/01 01:36:24;;;;;;;13.10;9.13;;;3.90;99.90;;;;;;5110342;28;20244;-76
2021/03/01 01:38:50;;;;;;;14.60;9.07;;;4.00;99.90;;;;;;5110377;28;20202;-76
2021/03/01 01:41:17;;;;;;;13.80;8.70;;;3.90;99.90;;;;;;5110282;28;20229;-76
2021/03/01 01:43:44;;;;;;;12.77;8.67;;;3.90;99.90;;;;;;5110076;28;20205;-76
2021/03/01 01:46:10;;;;;;;12.67;8.67;;;3.90;99.90;;;;;;5109831;28;20591;-76
2021/03/01 01:48:36;;;;;;;11.63;8.43;;;4.00;99.90;;;;;;5110157;28;20218;-77
2021/03/01 01:51:02;;;;;;;15.13;9.30;;;4.00;99.90;;;;;;5109771;28;20906;-76
2021/03/01 01:53:28;;;;;;;11.50;8.53;;;4.00;99.90;;;;;;5110399;28;20202;-77
2021/03/01 01:55:55;;;;;;;11.40;7.80;;;4.10;99.90;;;;;;5110004;28;20256;-77
2021/03/01 01:58:21;;;;;;;12.87;8.37;;;4.10;99.90;;;;;;5110444;28;20236;-77
2021/03/01 02:00:48;;;;;;;13.23;9.33;;;4.10;99.90;;;;;;5109677;28;20267;-77
2021/03/01 02:03:53;;;;;;;11.57;8.30;;;4.10;99.90;;;;;;5110035;28;20198;-77
2021/03/01 02:06:30;;;;;;;12.47;8.73;;;4.10;99.90;;;;;;5095413;27;20286;-78
2021/03/01 02:09:23;;;;;;;13.80;8.80;;;4.10;99.90;;;;;;5109734;28;20279;-76
2021/03/01 02:12:10;;;;;;;12.10;8.77;;;4.10;99.90;;;;;;5109920;28;20190;-75
2021/03/01 02:14:48;;;;;;;15.77;8.77;;;4.10;99.90;;;;;;5087797;28;20245;-76
2021/03/01 02:17:15;;;;;;;13.13;8.77;;;4.10;99.90;;;;;;5088779;28;20198;-76
2021/03/01 02:19:41;;;;;;;13.40;9.60;;;4.10;99.90;;;;;;5089010;28;20209;-76
2021/03/01 02:22:08;;;;;;;12.17;8.70;;;4.10;99.90;;;;;;5088987;28;20315;-75
2021/03/01 02:24:39;;;;;;;13.33;8.90;;;4.10;99.90;;;;;;5089059;28;20209;-76
2021/03/01 02:27:06;;;;;;;12.43;9.03;;;4.10;99.90;;;;;;5089133;28;20225;-75
2021/03/01 02:29:34;;;;;;;12.20;8.90;;;4.10;99.90;;;;;;5089048;28;20213;-76
2021/03/01 02:32:04;;;;;;;12.13;8.13;;;4.10;99.90;;;;;;5089186;28;20242;-75
2021/03/01 02:34:34;;;;;;;14.67;8.47;;;4.10;99.90;;;;;;5088771;28;20207;-76
2021/03/01 02:37:05;;;;;;;12.73;8.47;;;4.10;99.90;;;;;;5089067;28;20195;-76
2021/03/01 02:39:36;;;;;;;11.53;8.33;;;4.10;99.90;;;;;;5088886;28;20206;-75
2021/03/01 02:42:03;;;;;;;10.47;8.37;;;4.10;99.90;;;;;;5088976;28;20238;-75
2021/03/01 02:44:30;;;;;;;11.83;9.13;;;4.10;99.90;;;;;;5088523;28;20216;-75
2021/03/01 02:46:57;;;;;;;11.50;9.07;;;4.10;99.90;;;;;;5088656;28;20233;-76
2021/03/01 02:49:24;;;;;;;13.67;9.77;;;4.10;99.90;;;;;;5088790;28;20264;-76
2021/03/01 02:51:52;;;;;;;11.90;8.50;;;4.10;99.90;;;;;;5088306;28;20612;-75
2021/03/01 02:54:21;;;;;;;14.73;9.20;;;4.10;99.90;;;;;;5088334;28;20744;-75
2021/03/01 02:56:50;;;;;;;18.57;10.13;;;4.10;99.90;;;;;;5088419;28;20211;-75
2021/03/01 02:59:17;;;;;;;12.77;9.30;;;4.10;99.90;;;;;;5088458;28;20246;-75
2021/03/01 03:01:45;;;;;;;11.73;8.87;;;4.10;99.90;;;;;;5088211;28;20641;-75
2021/03/01 03:04:12;;;;;;;14.80;9.87;;;4.10;99.90;;;;;;5088520;28;20241;-75
2021/03/01 03:06:39;;;;;;;12.77;8.73;;;4.10;99.90;;;;;;5088341;28;20233;-75
2021/03/01 03:09:08;;;;;;;15.47;9.27;;;4.10;99.90;;;;;;5088500;28;20260;-75
2021/03/01 03:11:35;;;;;;;11.67;8.63;;;4.20;99.90;;;;;;5088020;28;20207;-75
2021/03/01 03:14:04;;;;;;;11.83;8.83;;;4.20;99.90;;;;;;5088394;28;20636;-76
2021/03/01 03:16:32;;;;;;;12.47;9.27;;;4.20;99.90;;;;;;5088432;28;20202;-75
2021/03/01 03:18:59;;;;;;;15.30;9.77;;;4.20;99.90;;;;;;5088470;28;20238;-76
2021/03/01 03:21:25;;;;;;;11.47;8.90;;;4.20;99.90;;;;;;5088605;28;20234;-75
2021/03/01 03:23:53;;;;;;;16.67;10.63;;;4.20;99.90;;;;;;5087992;28;20202;-76
2021/03/01 03:26:20;;;;;;;13.57;9.53;;;4.20;99.90;;;;;;5088310;28;20290;-75
2021/03/01 03:28:46;;;;;;;11.40;9.50;;;4.10;99.90;;;;;;5090046;28;20681;-75
2021/03/01 03:31:13;;;;;;;14.27;9.70;;;4.10;99.90;;;;;;5092473;28;20264;-75
2021/03/01 03:33:41;;;;;;;13.80;9.67;;;4.10;99.90;;;;;;5092352;28;20245;-75
2021/03/01 03:36:09;;;;;;;13.47;9.37;;;4.10;99.90;;;;;;5092149;28;20226;-75
2021/03/01 03:38:40;;;;;;;15.20;10.33;;;4.10;99.90;;;;;;5092046;28;20214;-74
2021/03/01 03:41:08;;;;;;;14.70;10.10;;;4.10;99.90;;;;;;5092168;28;20668;-74
2021/03/01 03:43:36;;;;;;;13.57;9.17;;;4.20;99.90;;;;;;5092165;28;20206;-74
2021/03/01 03:46:03;;;;;;;13.37;8.97;;;4.20;99.90;;;;;;5092000;28;20260;-74
2021/03/01 03:48:31;;;;;;;14.17;9.73;;;4.20;99.90;;;;;;5092172;28;20215;-75
2021/03/01 03:51:00;;;;;;;12.87;9.33;;;4.20;99.90;;;;;;5092000;28;20593;-76
2021/03/01 03:53:28;;;;;;;13.60;9.77;;;4.20;99.90;;;;;;5092295;28;20209;-75
2021/03/01 03:55:56;;;;;;;15.13;9.87;;;4.20;99.90;;;;;;5091979;28;20246;-75
2021/03/01 03:58:28;;;;;;;17.13;11.13;;;4.20;99.90;;;;;;5091868;28;20215;-75
2021/03/01 04:00:57;;;;;;;14.17;9.60;;;4.20;99.90;;;;;;5091683;28;20716;-74
2021/03/01 04:03:25;;;;;;;14.20;10.53;;;4.10;99.90;;;;;;5091466;28;20207;-74
2021/03/01 04:05:54;;;;;;;13.77;10.07;;;4.10;99.90;;;;;;5091305;28;20765;-74
2021/03/01 04:08:21;;;;;;;15.37;9.90;;;4.10;99.90;;;;;;5091770;28;20206;-75
2021/03/01 04:10:51;;;;;;;14.57;10.40;;;4.10;99.90;;;;;;5091564;28;20210;-74
2021/03/01 04:13:18;;;;;;;13.93;11.00;;;4.00;99.90;;;;;;5091838;28;20206;-74
2021/03/01 04:15:47;;;;;;;15.00;10.77;;;3.90;99.90;;;;;;5091258;28;20292;-74
2021/03/01 04:18:16;;;;;;;14.90;9.90;;;4.00;99.90;;;;;;5091748;28;20279;-74
2021/03/01 04:20:44;;;;;;;18.30;10.50;;;4.00;99.90;;;;;;5091351;28;20206;-74
2021/03/01 04:23:12;;;;;;;13.07;10.17;;;4.10;99.90;;;;;;5091593;28;20249;-74
2021/03/01 04:25:39;;;;;;;14.63;9.70;;;4.10;99.90;;;;;;5091391;28;20838;-74
2021/03/01 04:28:05;;;;;;;15.50;10.60;;;4.10;99.90;;;;;;5091342;28;20238;-74
2021/03/01 04:30:32;;;;;;;13.57;9.43;;;4.20;99.90;;;;;;5091607;28;20202;-74
2021/03/01 04:33:01;;;;;;;16.00;10.50;;;4.20;99.90;;;;;;5091423;28;20230;-74
2021/03/01 04:35:28;;;;;;;15.03;10.40;;;4.20;99.90;;;;;;5091525;28;20206;-75
2021/03/01 04:37:54;;;;;;;16.03;10.10;;;4.20;99.90;;;;;;5091037;28;20210;-75
2021/03/01 04:40:22;;;;;;;14.37;9.53;;;4.20;99.90;;;;;;5090542;28;20242;-74
2021/03/01 04:42:48;;;;;;;13.70;10.37;;;4.20;99.90;;;;;;5090987;28;20597;-75
2021/03/01 04:45:17;;;;;;;17.27;10.87;;;4.10;99.90;;;;;;5090736;28;21017;-74
2021/03/01 04:47:45;;;;;;;14.43;10.50;;;4.10;99.90;;;;;;5090816;28;20210;-75
2021/03/01 04:50:14;;;;;;;14.23;9.87;;;4.20;99.90;;;;;;5090888;28;20253;-74
2021/03/01 04:52:41;;;;;;;15.63;10.67;;;4.20;99.90;;;;;;5090707;28;20239;-75
2021/03/01 04:55:08;;;;;;;14.33;9.50;;;4.20;99.90;;;;;;5090936;28;20222;-74
2021/03/01 04:57:36;;;;;;;15.47;10.10;;;4.20;99.90;;;;;;5090581;28;20236;-74
2021/03/01 05:00:05;;;;;;;13.60;9.63;;;4.20;99.90;;;;;;5090614;28;20242;-75
2021/03/01 05:02:32;;;;;;;13.37;9.90;;;4.20;99.90;;;;;;5090834;28;20276;-73
2021/03/01 05:04:59;;;;;;;16.60;10.93;;;4.20;99.90;;;;;;5090767;28;20214;-73
2021/03/01 05:07:27;;;;;;;13.53;10.10;;;4.20;99.90;;;;;;5090391;28;20743;-73
2021/03/01 05:09:54;;;;;;;14.70;10.70;;;4.20;99.90;;;;;;5090484;28;20213;-74
2021/03/01 05:12:20;;;;;;;14.00;9.90;;;4.10;99.90;;;;;;5090202;28;20653;-74
2021/03/01 05:14:47;;;;;;;14.93;10.50;;;4.00;99.90;;;;;;5090191;28;20234;-75
2021/03/01 05:17:13;;;;;;;15.47;10.70;;;4.00;99.90;;;;;;5090372;28;20689;-76
2021/03/01 05:19:39;;;;;;;14.53;10.00;;;4.00;99.90;;;;;;5090223;28;20203;-75
2021/03/01 05:22:05;;;;;;;15.27;10.30;;;4.00;99.90;;;;;;5090244;28;20213;-76
2021/03/01 05:24:32;;;;;;;14.43;10.03;;;4.10;99.90;;;;;;5089991;28;20787;-75
2021/03/01 05:26:58;;;;;;;16.10;10.83;;;4.10;99.90;;;;;;5090187;28;20227;-75
2021/03/01 05:29:24;;;;;;;16.33;11.53;;;4.10;99.90;;;;;;5090384;28;20316;-75
2021/03/01 05:31:51;;;;;;;15.50;9.63;;;4.00;99.90;;;;;;5089995;28;20245;-75
2021/03/01 05:34:17;;;;;;;14.93;10.40;;;4.00;99.90;;;;;;5089925;28;20234;-76
2021/03/01 05:36:44;;;;;;;16.73;10.50;;;4.00;99.90;;;;;;5089780;28;20670;-74
2021/03/01 05:39:10;;;;;;;13.13;9.37;;;4.00;99.90;;;;;;5090134;28;20601;-74
2021/03/01 05:41:39;;;;;;;15.87;10.77;;;4.10;99.90;;;;;;5089488;28;20734;-74
2021/03/01 05:44:06;;;;;;;15.57;10.10;;;4.10;99.90;;;;;;5089848;28;20263;-76
2021/03/01 05:46:34;;;;;;;15.40;10.30;;;4.10;99.90;;;;;;5089620;28;20273;-75
2021/03/01 05:49:03;;;;;;;16.60;9.80;;;4.10;99.90;;;;;;5089859;28;20206;-75
2021/03/01 05:51:30;;;;;;;15.10;11.07;;;4.20;99.90;;;;;;5088902;28;20260;-74
2021/03/01 05:54:00;;;;;;;14.13;9.97;;;4.10;99.90;;;;;;5089736;28;20227;-74
2021/03/01 05:56:26;;;;;;;14.23;10.10;;;4.20;99.90;;;;;;5089953;28;20207;-75
2021/03/01 05:58:53;;;;;;;13.43;9.90;;;4.20;99.90;;;;;;5089476;28;20219;-73
2021/03/01 06:01:19;;;;;;;12.60;9.73;;;4.20;99.90;;;;;;5089411;28;20336;-74
2021/03/01 06:03:46;;;;;;;12.43;9.47;;;4.20;99.90;;;;;;5089453;28;20238;-74
2021/03/01 06:06:12;;;;;;;15.23;9.73;;;4.20;99.90;;;;;;5089446;28;20253;-74
2021/03/01 06:08:39;;;;;;;14.00;9.60;;;4.20;99.90;;;;;;5089686;28;20210;-74
2021/03/01 06:11:07;;;;;;;13.17;9.97;;;4.20;99.90;;;;;;5089371;28;20355;-74
2021/03/01 06:13:35;;;;;;;12.17;8.93;;;4.20;99.90;;;;;;5089283;28;20246;-74
2021/03/01 06:16:03;;;;;;;13.07;9.90;;;4.10;99.90;;;;;;5089293;28;20203;-74
2021/03/01 06:18:30;;;;;;;15.13;10.23;;;4.20;99.90;;;;;;5089346;28;20238;-76
2021/03/01 06:21:09;;;;;;;15.20;9.80;;;4.20;99.90;;;;;;5089165;28;20213;-75
2021/03/01 06:23:38;;;;;;;13.13;9.60;;;4.10;99.90;;;;;;5089364;28;20272;-72
2021/03/01 06:26:21;;;;;;;13.73;10.57;;;4.20;99.90;;;;;;5089092;28;20256;-73
2021/03/01 06:28:48;;;;;;;13.23;9.80;;;4.20;99.90;;;;;;5088982;28;20217;-76
2021/03/01 06:31:33;;;;;;;12.40;9.03;;;4.20;99.90;;;;;;5089090;28;20218;-76
2021/03/01 06:34:18;;;;;;;14.13;10.20;;;4.20;99.90;;;;;;5089084;28;20194;-73
2021/03/01 06:37:06;;;;;;;13.43;9.30;;;4.20;99.90;;;;;;5088856;28;20204;-74
2021/03/01 06:39:36;;;;;;;15.23;10.17;;;4.20;99.90;;;;;;5089804;28;20198;-73
2021/03/01 06:42:23;;;;;;;18.60;11.87;;;4.20;99.90;;;;;;5105263;28;20609;-73
2021/03/01 06:45:10;;;;;;;15.87;11.07;;;4.20;99.90;;;;;;5105455;28;20621;-73
2021/03/01 06:47:51;;;;;;;16.77;11.47;;;4.20;99.90;;;;;;5105679;28;20225;-73
2021/03/01 06:50:31;;;;;;;16.23;10.73;;;4.20;99.90;;;;;;5105465;28;20275;-74
2021/03/01 06:52:57;;;;;;;15.17;10.43;;;4.30;99.90;;;;;;5104504;28;20614;-75
2021/03/01 06:55:24;;;;;;;17.87;10.60;;;4.30;99.90;;;;;;5104783;28;20730;-74
2021/03/01 06:57:50;;;;;;;13.20;9.80;;;4.30;99.90;;;;;;5104645;28;20198;-74
2021/03/01 07:00:23;;;;;;;18.40;10.97;;;4.40;99.90;;;;;;5104836;28;20233;-74
2021/03/01 07:02:49;;;;;;;16.07;11.37;;;4.40;99.90;;;;;;5104809;28;20282;-75
2021/03/01 07:05:18;;;;;;;12.43;9.50;;;4.40;99.90;;;;;;5104855;28;20239;-74
2021/03/01 07:07:44;;;;;;;16.83;10.47;;;4.50;99.90;;;;;;5104826;28;20234;-74
2021/03/01 07:10:11;;;;;;;17.17;10.37;;;4.50;99.90;;;;;;5105228;28;20662;-73
2021/03/01 07:12:42;;;;;;;13.77;10.40;;;4.60;99.90;;;;;;5104741;28;20206;-74
2021/03/01 07:15:11;;;;;;;13.50;9.30;;;4.60;99.90;;;;;;5104864;28;20217;-73
2021/03/01 07:17:39;;;;;;;13.90;9.93;;;4.60;99.90;;;;;;5104876;28;20266;-74
2021/03/01 07:20:08;;;;;;;16.57;10.03;;;4.70;99.90;;;;;;5107196;28;20217;-74
2021/03/01 07:22:37;;;;;;;15.20;10.13;;;4.80;99.90;;;;;;5108385;28;20213;-74
2021/03/01 07:25:05;;;;;;;16.03;10.63;;;4.80;99.90;;;;;;5107678;28;20202;-75
2021/03/01 07:27:32;;;;;;;16.57;10.20;;;4.80;99.90;;;;;;5107187;28;20230;-74
2021/03/01 07:30:01;;;;;;;16.90;11.27;;;4.80;99.90;;;;;;5108077;28;20651;-74
2021/03/01 07:32:29;;;;;;;18.40;10.40;;;4.70;99.90;;;;;;5108451;28;20197;-74
2021/03/01 07:34:57;;;;;;;13.63;10.07;;;4.70;99.90;;;;;;5100191;28;20221;-74
2021/03/01 07:37:23;;;;;;;16.07;10.37;;;4.70;99.90;;;;;;5100461;28;20241;-75
2021/03/01 07:39:50;;;;;;;15.07;10.10;;;4.70;99.90;;;;;;5108311;28;20213;-74
2021/03/01 07:42:16;;;;;;;15.83;10.53;;;4.70;99.90;;;;;;5108272;28;20263;-74
2021/03/01 07:44:46;;;;;;;14.97;10.30;;;4.70;99.90;;;;;;5108272;28;20278;-74
2021/03/01 07:47:14;;;;;;;14.60;10.07;;;4.80;99.90;;;;;;5099128;28;20262;-75
2021/03/01 07:49:42;;;;;;;16.43;11.20;;;4.80;99.90;;;;;;5087556;28;20815;-75
2021/03/01 07:52:33;;;;;;;15.97;10.90;;;4.80;99.90;;;;;;5087835;28;20210;-75
2021/03/01 07:55:00;;;;;;;18.27;12.07;;;4.70;99.90;;;;;;5107882;28;20226;-75
2021/03/01 07:57:27;;;;;;;15.23;10.73;;;4.70;99.90;;;;;;5108108;28;20213;-74
2021/03/01 07:59:54;;;;;;;14.80;10.77;;;4.70;99.90;;;;;;5107918;28;20342;-74
2021/03/01 08:02:25;;;;;;;14.07;10.30;;;4.80;99.90;;;;;;5108438;28;20238;-74
2021/03/01 08:04:53;;;;;;;15.03;10.47;;;4.80;99.90;;;;;;5107984;28;20589;-74
2021/03/01 08:07:37;;;;;;;14.97;10.13;;;4.80;99.90;;;;;;5108373;28;20241;-74
2021/03/01 08:10:05;;;;;;;16.17;10.33;;;4.90;99.90;;;;;;5108472;28;20190;-75
2021/03/01 08:12:58;;;;;;;13.97;10.07;;;4.90;99.90;;;;;;5107968;28;20210;-75
2021/03/01 08:15:43;;;;;;;13.17;9.90;;;5.00;99.90;;;;;;5109537;28;20210;-74
2021/03/01 08:18:14;;;;;;;16.07;10.90;;;5.00;99.90;;;;;;5111978;28;20194;-75
2021/03/01 08:20:58;;;;;;;14.13;9.80;;;5.00;99.90;;;;;;5111600;28;20206;-74
2021/03/01 08:23:35;;;;;;;15.97;10.50;;;5.10;99.90;;;;;;5112010;28;20194;-75
2021/03/01 08:26:06;;;;;;;16.87;9.97;;;5.10;99.90;;;;;;5111817;28;20304;-75
2021/03/01 08:28:57;;;;;;;14.37;10.23;;;5.10;99.90;;;;;;5111440;28;20186;-74
2021/03/01 08:31:31;;;;;;;16.30;10.07;;;5.20;99.90;;;;;;5096020;27;20206;-74
2021/03/01 08:34:37;;;;;;;13.13;9.63;;;5.20;99.90;;;;;;5111414;28;20209;-74
2021/03/01 08:37:06;;;;;;;16.57;9.93;;;5.20;99.90;;;;;;5106201;27;20213;-74
2021/03/01 08:39:55;;;;;;;14.30;10.10;;;5.30;99.90;;;;;;5100943;28;20748;-74
2021/03/01 08:42:47;;;;;;;15.27;10.17;;;5.20;99.90;;;;;;5102077;28;20217;-75
2021/03/01 08:45:19;;;;;;;18.17;10.40;;;5.20;99.90;;;;;;5108521;28;20225;-74
2021/03/01 08:47:49;;;;;;;13.30;9.80;;;5.20;99.90;;;;;;5090964;28;20219;-74
2021/03/01 08:50:20;;;;;;;13.33;9.77;;;5.20;99.90;;;;;;5091018;28;20230;-74
2021/03/01 08:52:48;;;;;;;14.87;9.73;;;5.20;99.90;;;;;;5098186;28;20210;-74
2021/03/01 08:55:16;;;;;;;13.70;10.13;;;5.20;99.90;;;;;;5111147;28;20639;-74
2021/03/01 08:58:00;;;;;;;13.73;9.60;;;5.20;99.90;;;;;;5110901;28;20210;-74
2021/03/01 09:00:28;;;;;;;13.27;9.37;;;5.20;99.90;;;;;;5110788;28;20732;-74
2021/03/01 09:03:28;;;;;;;14.27;10.00;;;5.30;99.90;;;;;;5110657;28;20592;-74
2021/03/01 09:06:04;;;;;;;12.10;8.70;;;5.30;99.90;;;;;;5012323;28;20257;-74
2021/03/01 09:08:33;;;;;;;14.77;9.73;;;5.30;99.90;;;;;;5008053;28;20201;-74
2021/03/01 09:11:02;;;;;;;14.63;9.17;;;5.30;99.90;;;;;;5051287;28;20242;-74
2021/03/01 09:13:29;;;;;;;13.53;8.87;;;5.30;99.90;;;;;;5090625;28;20199;-74
2021/03/01 09:15:56;;;;;;;13.53;8.80;;;5.40;99.90;;;;;;5090365;28;20256;-74
2021/03/01 09:18:27;;;;;;;11.47;9.07;;;5.30;99.90;;;;;;5100117;28;20198;-74
2021/03/01 09:20:55;;;;;;;15.33;8.70;;;5.30;99.90;;;;;;5110730;27;20535;-74
2021/03/01 09:23:33;;;;;;;12.93;8.77;;;5.30;99.90;;;;;;5110571;28;20202;-74
2021/03/01 09:26:00;;;;;;;15.13;8.70;;;5.40;99.90;;;;;;5110246;28;20230;-74
2021/03/01 09:28:30;;;;;;;13.93;8.90;;;5.40;99.90;;;;;;5110482;28;20225;-75
2021/03/01 09:31:01;;;;;;;12.37;8.80;;;5.40;99.90;;;;;;5110470;28;20206;-74
2021/03/01 09:33:28;;;;;;;11.33;8.00;;;5.40;99.90;;;;;;5110377;28;20695;-74
2021/03/01 09:35:54;;;;;;;12.77;8.90;;;5.40;99.90;;;;;;5110358;28;20217;-75
2021/03/01 09:38:21;;;;;;;11.53;8.63;;;5.40;99.90;;;;;;5110338;28;20202;-75
2021/03/01 09:40:56;;;;;;;10.53;8.47;;;5.40;99.90;;;;;;5109975;28;20215;-75
2021/03/01 09:43:23;;;;;;;12.47;8.50;;;5.40;99.90;;;;;;5110265;28;20197;-75
2021/03/01 09:45:49;;;;;;;15.53;8.97;;;5.40;99.90;;;;;;5110293;28;20213;-75
2021/03/01 09:48:16;;;;;;;12.20;9.07;;;5.40;99.90;;;;;;5110292;28;20259;-75
2021/03/01 09:50:42;;;;;;;13.67;8.87;;;5.40;99.90;;;;;;5110166;28;20222;-75
2021/03/01 09:53:09;;;;;;;11.23;8.07;;;5.40;99.90;;;;;;5109850;28;20249;-76
2021/03/01 09:55:35;;;;;;;10.00;8.07;;;5.40;99.90;;;;;;5110137;28;20202;-75
2021/03/01 09:58:21;;;;;;;12.00;8.73;;;5.50;99.90;;;;;;5109313;28;20209;-75
2021/03/01 10:00:48;;;;;;;13.57;9.33;;;5.50;99.90;;;;;;5106530;28;20245;-76
2021/03/01 10:03:15;;;;;;;14.47;9.50;;;5.60;99.90;;;;;;5096335;28;20209;-75
2021/03/01 10:05:48;;;;;;;11.47;8.67;;;5.60;99.90;;;;;;5109372;28;20729;-76
2021/03/01 10:08:20;;;;;;;11.60;8.50;;;5.60;99.90;;;;;;5109911;28;20194;-75
2021/03/01 10:10:48;;;;;;;13.77;9.10;;;5.60;99.90;;;;;;5106890;28;20217;-75
2021/03/01 10:13:25;;;;;;;13.23;9.33;;;5.60;99.90;;;;;;5089430;28;20241;-76
2021/03/01 10:15:52;;;;;;;14.37;9.40;;;5.60;99.90;;;;;;5089007;28;20649;-75
2021/03/01 10:18:20;;;;;;;12.57;8.67;;;5.60;99.90;;;;;;5089283;28;20580;-76
2021/03/01 10:20:48;;;;;;;12.07;8.30;;;5.60;99.90;;;;;;5088700;28;20665;-75
2021/03/01 10:23:29;;;;;;;12.40;8.87;;;5.70;99.90;;;;;;5091200;28;20242;-75
2021/03/01 10:26:15;;;;;;;11.97;8.17;;;5.70;99.90;;;;;;5109366;28;20205;-75
2021/03/01 10:28:46;;;;;;;11.77;8.87;;;5.70;99.90;;;;;;5109401;28;20194;-75
2021/03/01 10:31:14;;;;;;;10.50;8.10;;;5.80;99.90;;;;;;5109175;28;20198;-75
2021/03/01 10:33:50;;;;;;;10.20;8.20;;;5.90;99.90;;;;;;5109446;28;20206;-76
2021/03/01 10:36:16;;;;;;;12.00;8.60;;;5.90;99.90;;;;;;5109382;28;20209;-75
2021/03/01 10:38:58;;;;;;;12.00;9.37;;;6.00;99.90;;;;;;5108885;28;20574;-75
2021/03/01 10:41:26;;;;;;;12.27;8.00;;;6.10;99.90;;;;;;5109322;28;20248;-76
2021/03/01 10:43:56;;;;;;;11.57;8.27;;;6.20;99.90;;;;;;5109007;28;20209;-75
2021/03/01 10:46:30;;;;;;;10.60;8.27;;;6.20;99.90;;;;;;5109157;28;20258;-76
2021/03/01 10:48:56;;;;;;;10.60;8.27;;;6.40;99.90;;;;;;5109167;28;20191;-76
2021/03/01 10:51:22;;;;;;;9.70;8.47;;;6.40;99.90;;;;;;5108865;28;20683;-76
2021/03/01 10:53:48;;;;;;;11.87;8.37;;;6.50;99.90;;;;;;5109161;28;20237;-75
2021/03/01 10:56:14;;;;;;;10.80;8.33;;;6.40;99.90;;;;;;5109205;28;20567;-76
2021/03/01 10:58:40;;;;;;;11.40;7.73;;;6.40;99.90;;;;;;5108934;28;20574;-76
2021/03/01 11:01:07;;;;;;;13.17;8.47;;;6.30;99.90;;;;;;5108339;28;20234;-75
2021/03/01 11:03:33;;;;;;;11.37;8.63;;;6.60;99.90;;;;;;5108903;28;20210;-76
2021/03/01 11:05:59;;;;;;;10.23;8.70;;;6.60;99.90;;;;;;5108651;28;20202;-76
2021/03/01 11:08:26;;;;;;;10.60;9.03;;;6.60;99.90;;;;;;5108757;28;20255;-76
2021/03/01 11:10:52;;;;;;;14.17;8.57;;;6.60;99.90;;;;;;5108566;28;20255;-76
2021/03/01 11:13:18;;;;;;;10.27;8.57;;;6.60;99.90;;;;;;5108633;28;20202;-76
2021/03/01 11:15:44;;;;;;;12.10;9.50;;;6.70;99.90;;;;;;5108894;28;20217;-76
2021/03/01 11:18:12;;;;;;;10.27;8.80;;;6.70;99.90;;;;;;5108774;28;20266;-76
2021/03/01 11:20:38;;;;;;;12.00;9.20;;;6.60;99.90;;;;;;5108492;28;20230;-75
2021/03/01 11:23:06;;;;;;;11.43;9.57;;;6.60;99.90;;;;;;5108649;28;20306;-74
2021/03/01 11:25:34;;;;;;;14.70;10.20;;;6.70;99.90;;;;;;5108728;28;20202;-73
2021/03/01 11:28:00;;;;;;;15.93;11.20;;;6.70;99.90;;;;;;5108513;28;20256;-75
2021/03/01 11:30:27;;;;;;;15.47;11.70;;;6.70;99.90;;;;;;5108752;28;20209;-76
2021/03/01 11:32:53;;;;;;;13.03;11.23;;;6.70;99.90;;;;;;5108524;28;20209;-76
2021/03/01 11:35:20;;;;;;;15.03;11.53;;;6.70;99.90;;;;;;5108499;28;20725;-76
2021/03/01 11:37:46;;;;;;;17.67;12.20;;;6.70;99.90;;;;;;5109114;28;20568;-76
2021/03/01 11:40:13;;;;;;;14.10;11.03;;;6.70;99.90;;;;;;5108193;28;20676;-73
2021/03/01 11:42:40;;;;;;;12.70;10.97;;;6.90;99.90;;;;;;5108758;28;20209;-73
2021/03/01 11:45:07;;;;;;;16.47;11.83;;;6.90;99.90;;;;;;5108404;28;20207;-74
2021/03/01 11:47:33;;;;;;;13.63;10.60;;;7.00;99.90;;;;;;5108620;28;20230;-74
2021/03/01 11:49:59;;;;;;;13.63;11.43;;;7.10;99.90;;;;;;5109189;28;20303;-76
2021/03/01 11:52:26;;;;;;;12.63;10.90;;;7.30;99.90;;;;;;5112390;28;20661;-76
2021/03/01 11:54:52;;;;;;;12.90;11.03;;;7.30;99.90;;;;;;5112282;28;20337;-76
2021/03/01 11:57:18;;;;;;;14.33;11.50;;;7.40;99.90;;;;;;5112424;28;20206;-76
2021/03/01 11:59:48;;;;;;;12.60;11.30;;;7.50;99.90;;;;;;5112239;28;20238;-76
2021/03/01 12:02:14;;;;;;;15.93;11.30;;;7.70;99.90;;;;;;5112443;28;20206;-76
2021/03/01 12:04:41;;;;;;;14.50;11.97;;;7.90;99.90;;;;;;5112412;28;20210;-76
2021/03/01 12:07:07;;;;;;;14.30;11.43;;;8.20;99.90;;;;;;5111991;28;20280;-73
2021/03/01 12:09:34;;;;;;;11.60;9.77;;;8.50;99.90;;;;;;5112025;28;20623;-73
2021/03/01 12:12:01;;;;;;;11.93;10.73;;;8.70;99.90;;;;;;5111962;28;20649;-74
2021/03/01 12:14:27;;;;;;;12.83;9.70;;;8.60;99.90;;;;;;5111413;28;20226;-74
2021/03/01 12:16:53;;;;;;;12.00;10.77;;;8.60;99.90;;;;;;5111703;28;20202;-74
2021/03/01 12:19:19;;;;;;;14.40;11.00;;;8.50;99.90;;;;;;5112116;28;20208;-74
2021/03/01 12:21:46;;;;;;;11.63;10.43;;;8.50;99.90;;;;;;5112145;28;20206;-74
2021/03/01 12:24:13;;;;;;;11.73;10.40;;;8.60;99.90;;;;;;5111302;28;20210;-75
2021/03/01 12:26:39;;;;;;;11.00;9.63;;;8.60;99.90;;;;;;5111209;28;20568;-74
2021/03/01 12:29:06;;;;;;;12.00;10.53;;;8.80;99.90;;;;;;5111574;28;20226;-74
2021/03/01 12:31:33;;;;;;;10.60;9.60;;;8.80;99.90;;;;;;5111682;28;20202;-75
2021/03/01 12:33:59;;;;;;;10.30;9.30;;;8.90;99.90;;;;;;5111516;28;20617;-74
2021/03/01 12:36:26;;;;;;;12.40;9.70;;;9.10;99.90;;;;;;5111385;28;20241;-74
2021/03/01 12:38:52;;;;;;;12.43;9.40;;;9.30;99.90;;;;;;5111274;28;20263;-75
2021/03/01 12:41:19;;;;;;;9.47;8.47;;;9.40;99.90;;;;;;5111491;28;20247;-74
2021/03/01 12:43:46;;;;;;;9.73;8.73;;;9.50;99.90;;;;;;5111239;28;20213;-74
2021/03/01 12:46:12;;;;;;;9.03;8.00;;;9.80;99.90;;;;;;5110971;28;20202;-75
2021/03/01 12:48:39;;;;;;;9.63;8.63;;;9.80;99.90;;;;;;5111490;28;20604;-75
2021/03/01 12:51:05;;;;;;;11.07;9.00;;;9.90;99.90;;;;;;5111196;28;20251;-75
2021/03/01 12:53:32;;;;;;;11.80;8.33;;;10.20;99.90;;;;;;5110954;28;20289;-75